Pittstown, NJ (08867)

12:12 AM EDT on August 04, 2015 (GMT -0400)
Southgate | | Change Station
CLOSE
Current Station
Personal Weather Station
Location: New Jersey, NJ
Elevation: 243 ft
Nearby Weather Stations

Elev 243 ft 40.62 °N, 74.90 °W | Updated 51 seconds ago

Partly Cloudy
Partly Cloudy
72.7 °F
Feels Like 73 °F
N
0.0
Wind Variable Wind from West
Gusts 0.0 mph

Today
High -- | Low -- °F
--% Chance of Precip.
Yesterday
High -- | Low -- °F
Precip. -- in
5:59 AM 8:11 PM
Waning Gibbous, 81% visible
Pressure 29.80 in
Visibility 10.0 miles
Clouds Clear
Heat Index 73 °F
Dew Point 66 °F
Humidity 78%
Rainfall 0.00 in
Snow Depth Not available.
UV 0.0 out of 12
Pollen 7.90 out of 12
Air Quality Not available.
Flu Activity Not available.
METAR KSMQ 040353Z AUTO 00000KT 10SM CLR 22/17 A2980 RMK AO2 LTG DSNT NW SLP089 T02170172

More Conditions Fewer Conditions

Pressure 29.80 in
Visibility 10.0 miles
Clouds Clear
Heat Index 73 °F
Dew Point 66 °F
Humidity 78%
Rainfall 0.00 in
Snow Depth Not available.
UV 0.0 out of 12
Pollen 7.90 out of 12
Air Quality Not available.
Flu Activity Not available.
METAR KSMQ 040353Z AUTO 00000KT 10SM CLR 22/17 A2980 RMK AO2 LTG DSNT NW SLP089 T02170172

More Conditions Fewer Conditions

Nowcast | as of 10:00 PM EDT on August 3, 2015

Showers and an isolated thunderstorm will be moving through the area between now and midnight. Up to one-quarter inch of rain is possible in isolated heavy downpours but most locations that experience a rain shower will get less.

×

10-Day Weather Forecast

×

Almanac

Astronomy

Aug. 04, 2015 Rise Set
Actual Time
Civil Twilight
Nautical Twilight
Astronomical Twilight
Moon
Length of Visible Light
Length of Day
Tomorrow will be .
, % of the Moon is Illuminated

Today's Extremes

State Highs State Lows

Community

WunderPhotos

Upload Photos

1,843,853 photos uploaded!

WunderBlogs® & News

Nearby

Air Quality

  Air Quality AQ Index Pollutant
Not available.

Snow Depth

Station Depth Elevation

Earthquake Activity

City Distance Mag. Time & Date
Minimum magnitude displayed is 2.5.

Coastal Water Temperatures

Place Temperature

Stations

Nearby Weather Stations

Station Location Temp. Windchill Dew Point Humidity Wind Precip. Elev Updated Type